DARLG EDNY-EDDS
Flight info
| Callsign | DARLG |
|---|---|
| Flight time | 0h 18m |
| Altitude | 20000 |
| Route | ALAGO1W ALAGO Z4 ARSUT T125 REUTL REUTL1W |
| Aircraft | CL60/M-SADE3FGHIJ3J4J7P2RWXY/HB1D1 |
Departure
| Time | 2026-05-07 17:32 |
|---|---|
| Airport | Bodensee Airport Friedrichshafen (EDNY) |
Arrival
| Time | 2026-05-07 17:51 |
|---|---|
| Airport | Stuttgart Airport (EDDS) |
| Time | Latitude | Longitude | Altitude | Speed | Heading |
|---|---|---|---|---|---|
| 2026-05-07 17:16 | 47.67269 | 9.52116 | 1365 ft | 0 kts | 190° |
| 2026-05-07 17:30 | 47.67259 | 9.52102 | 1365 ft | 6 kts | 258° |
| 2026-05-07 17:30 | 47.67318 | 9.52100 | 1365 ft | 11 kts | 11° |
| 2026-05-07 17:31 | 47.67362 | 9.52213 | 1366 ft | 17 kts | 68° |
| 2026-05-07 17:31 | 47.67435 | 9.52407 | 1367 ft | 25 kts | 57° |
| 2026-05-07 17:31 | 47.67519 | 9.52589 | 1366 ft | 13 kts | 13° |
| 2026-05-07 17:31 | 47.67620 | 9.52524 | 1367 ft | 20 kts | 328° |
| 2026-05-07 17:32 | 47.67615 | 9.52393 | 1367 ft | 22 kts | 241° |
| 2026-05-07 17:32 | 47.67372 | 9.51768 | 1363 ft | 123 kts | 241° |
| 2026-05-07 17:32 | 47.66856 | 9.50427 | 1869 ft | 168 kts | 240° |
| 2026-05-07 17:32 | 47.66248 | 9.48858 | 2900 ft | 185 kts | 240° |
| 2026-05-07 17:33 | 47.65611 | 9.47234 | 4087 ft | 192 kts | 242° |
| 2026-05-07 17:33 | 47.64944 | 9.45510 | 5176 ft | 207 kts | 242° |
| 2026-05-07 17:33 | 47.64223 | 9.43651 | 6353 ft | 225 kts | 241° |
| 2026-05-07 17:33 | 47.63469 | 9.41456 | 7258 ft | 257 kts | 254° |
| 2026-05-07 17:34 | 47.63491 | 9.38815 | 8558 ft | 271 kts | 288° |
| 2026-05-07 17:34 | 47.64484 | 9.36502 | 9961 ft | 282 kts | 313° |
| 2026-05-07 17:34 | 47.66084 | 9.34847 | 11295 ft | 296 kts | 333° |
| 2026-05-07 17:34 | 47.68190 | 9.34176 | 12038 ft | 331 kts | 359° |
| 2026-05-07 17:35 | 47.70480 | 9.35125 | 12888 ft | 358 kts | 28° |
| 2026-05-07 17:35 | 47.72531 | 9.37330 | 13931 ft | 372 kts | 37° |
| 2026-05-07 17:35 | 47.74556 | 9.39702 | 15100 ft | 379 kts | 36° |
| 2026-05-07 17:35 | 47.76633 | 9.42121 | 16278 ft | 385 kts | 36° |
| 2026-05-07 17:36 | 47.78893 | 9.44156 | 17403 ft | 387 kts | 21° |
| 2026-05-07 17:36 | 47.81510 | 9.45153 | 18123 ft | 397 kts | 2° |
| 2026-05-07 17:36 | 47.84318 | 9.45093 | 18766 ft | 411 kts | 357° |
| 2026-05-07 17:36 | 47.87193 | 9.45392 | 19514 ft | 423 kts | 4° |
| 2026-05-07 17:37 | 47.90155 | 9.45904 | 19933 ft | 431 kts | 4° |
| 2026-05-07 17:37 | 47.93111 | 9.46410 | 20008 ft | 432 kts | 4° |
| 2026-05-07 17:37 | 47.96106 | 9.46915 | 20004 ft | 429 kts | 4° |
| 2026-05-07 17:37 | 47.99032 | 9.47386 | 19994 ft | 427 kts | 4° |
| 2026-05-07 17:38 | 48.01997 | 9.47848 | 20003 ft | 426 kts | 4° |
| 2026-05-07 17:38 | 48.04924 | 9.48301 | 19936 ft | 416 kts | 4° |
| 2026-05-07 17:38 | 48.07727 | 9.48733 | 19566 ft | 399 kts | 4° |
| 2026-05-07 17:38 | 48.10412 | 9.49146 | 19320 ft | 381 kts | 3° |
| 2026-05-07 17:39 | 48.13016 | 9.49543 | 18851 ft | 372 kts | 3° |
| 2026-05-07 17:39 | 48.15558 | 9.49928 | 18262 ft | 366 kts | 4° |
| 2026-05-07 17:39 | 48.18058 | 9.50304 | 17654 ft | 363 kts | 3° |
| 2026-05-07 17:39 | 48.20558 | 9.50679 | 17037 ft | 359 kts | 3° |
| 2026-05-07 17:40 | 48.23002 | 9.51044 | 16424 ft | 355 kts | 3° |
| 2026-05-07 17:40 | 48.25454 | 9.51409 | 15801 ft | 352 kts | 3° |
| 2026-05-07 17:40 | 48.27885 | 9.51770 | 15192 ft | 349 kts | 3° |
| 2026-05-07 17:40 | 48.30255 | 9.52123 | 14969 ft | 334 kts | 3° |
| 2026-05-07 17:41 | 48.32508 | 9.52459 | 14854 ft | 318 kts | 3° |
| 2026-05-07 17:41 | 48.34674 | 9.52781 | 14535 ft | 311 kts | 2° |
| 2026-05-07 17:41 | 48.36803 | 9.53096 | 14127 ft | 308 kts | 2° |
| 2026-05-07 17:41 | 48.38928 | 9.53409 | 13696 ft | 305 kts | 2° |
| 2026-05-07 17:42 | 48.41003 | 9.53741 | 13174 ft | 303 kts | 4° |
| 2026-05-07 17:42 | 48.43090 | 9.54143 | 12630 ft | 301 kts | 4° |
| 2026-05-07 17:42 | 48.45161 | 9.54547 | 12096 ft | 299 kts | 4° |
| 2026-05-07 17:42 | 48.47195 | 9.54947 | 11571 ft | 296 kts | 4° |
| 2026-05-07 17:43 | 48.49220 | 9.55350 | 11033 ft | 293 kts | 4° |
| 2026-05-07 17:43 | 48.51243 | 9.55754 | 10463 ft | 291 kts | 4° |
| 2026-05-07 17:43 | 48.53214 | 9.56147 | 9915 ft | 289 kts | 4° |
| 2026-05-07 17:43 | 48.55193 | 9.56537 | 9383 ft | 286 kts | 4° |
| 2026-05-07 17:44 | 48.57161 | 9.56919 | 8838 ft | 283 kts | 4° |
| 2026-05-07 17:44 | 48.59087 | 9.57285 | 8379 ft | 276 kts | 4° |
| 2026-05-07 17:44 | 48.60965 | 9.57633 | 7934 ft | 271 kts | 4° |
| 2026-05-07 17:44 | 48.62823 | 9.57958 | 7451 ft | 267 kts | 2° |
| 2026-05-07 17:45 | 48.64631 | 9.57925 | 6964 ft | 262 kts | 354° |
| 2026-05-07 17:45 | 48.66438 | 9.57727 | 6477 ft | 259 kts | 353° |
| 2026-05-07 17:45 | 48.68216 | 9.57514 | 6131 ft | 252 kts | 353° |
| 2026-05-07 17:45 | 48.69929 | 9.57303 | 5757 ft | 246 kts | 353° |
| 2026-05-07 17:46 | 48.71622 | 9.57085 | 5337 ft | 243 kts | 353° |
| 2026-05-07 17:46 | 48.73193 | 9.56361 | 4897 ft | 238 kts | 325° |
| 2026-05-07 17:46 | 48.74218 | 9.54456 | 4472 ft | 237 kts | 291° |
| 2026-05-07 17:46 | 48.74329 | 9.51999 | 4092 ft | 238 kts | 259° |
| 2026-05-07 17:47 | 48.73985 | 9.49581 | 3981 ft | 234 kts | 261° |
| 2026-05-07 17:47 | 48.73644 | 9.47270 | 3992 ft | 217 kts | 257° |
| 2026-05-07 17:47 | 48.73273 | 9.45136 | 3995 ft | 202 kts | 257° |
| 2026-05-07 17:47 | 48.72903 | 9.43069 | 3748 ft | 206 kts | 256° |
| 2026-05-07 17:48 | 48.72522 | 9.41008 | 3524 ft | 201 kts | 256° |
| 2026-05-07 17:48 | 48.72150 | 9.39013 | 3246 ft | 191 kts | 256° |
| 2026-05-07 17:48 | 48.71795 | 9.37115 | 3001 ft | 186 kts | 256° |
| 2026-05-07 17:48 | 48.71448 | 9.35266 | 2760 ft | 179 kts | 256° |
| 2026-05-07 17:49 | 48.71117 | 9.33512 | 2538 ft | 167 kts | 256° |
| 2026-05-07 17:49 | 48.70807 | 9.31867 | 2309 ft | 158 kts | 257° |
| 2026-05-07 17:49 | 48.70519 | 9.30334 | 2115 ft | 144 kts | 257° |
| 2026-05-07 17:49 | 48.70268 | 9.28974 | 1876 ft | 133 kts | 258° |
| 2026-05-07 17:50 | 48.70021 | 9.27689 | 1679 ft | 123 kts | 257° |
| 2026-05-07 17:50 | 48.69787 | 9.26437 | 1591 ft | 125 kts | 258° |
| 2026-05-07 17:50 | 48.69550 | 9.25161 | 1475 ft | 127 kts | 256° |
| 2026-05-07 17:50 | 48.69309 | 9.23907 | 1285 ft | 119 kts | 256° |
| 2026-05-07 17:51 | 48.69113 | 9.22856 | 1278 ft | 84 kts | 255° |
| 2026-05-07 17:51 | 48.68996 | 9.22234 | 1278 ft | 51 kts | 251° |
| 2026-05-07 17:51 | 48.68953 | 9.21744 | 1278 ft | 40 kts | 278° |
| 2026-05-07 17:51 | 48.68982 | 9.21503 | 1278 ft | 10 kts | 283° |
| 2026-05-07 17:52 | 48.68994 | 9.21433 | 1278 ft | 8 kts | 283° |
| 2026-05-07 17:52 | 48.69017 | 9.21294 | 1278 ft | 18 kts | 285° |
| 2026-05-07 17:52 | 48.69044 | 9.21124 | 1278 ft | 10 kts | 277° |
| 2026-05-07 17:52 | 48.69091 | 9.21021 | 1278 ft | 13 kts | 319° |
| 2026-05-07 17:53 | 48.69123 | 9.21071 | 1278 ft | 10 kts | 73° |
| 2026-05-07 17:53 | 48.69138 | 9.21182 | 1278 ft | 9 kts | 133° |
| 2026-05-07 17:53 | 48.69121 | 9.21193 | 1278 ft | 0 kts | 164° |